createdAt,value
2023-04-26T00:00:32.504Z,99.9
2023-04-26T00:02:36.379Z,99.9
2023-04-26T00:04:42.860Z,99.9
2023-04-26T00:10:53.889Z,99.9
2023-04-26T00:12:57.678Z,99.9
2023-04-26T00:15:01.308Z,99.9
2023-04-26T00:17:05.094Z,99.9
2023-04-26T00:23:19.007Z,99.9
2023-04-26T00:24:22.275Z,99.9
2023-04-26T00:26:25.959Z,99.9
2023-04-26T00:30:33.392Z,99.9
2023-04-26T00:34:43.621Z,99.9
2023-04-26T00:36:47.425Z,99.9
2023-04-26T00:38:51.455Z,99.9
2023-04-26T00:40:54.819Z,99.9
2023-04-26T00:42:58.615Z,99.9
2023-04-26T00:45:02.273Z,99.9
2023-04-26T00:47:08.826Z,99.9
2023-04-26T00:49:12.614Z,99.9
2023-04-26T00:51:16.276Z,99.9
2023-04-26T00:59:31.228Z,99.9
2023-04-26T01:01:37.878Z,99.9
2023-04-26T01:05:45.213Z,99.9
2023-04-26T01:07:48.884Z,99.9
2023-04-26T01:09:52.670Z,99.9
2023-04-26T01:11:56.414Z,99.9
2023-04-26T01:16:06.655Z,99.9
2023-04-26T01:18:10.302Z,99.9
2023-04-26T01:22:32.008Z,99.9
2023-04-26T01:24:35.653Z,99.9
2023-04-26T01:26:39.308Z,99.9
2023-04-26T01:28:45.898Z,99.9
2023-04-26T01:30:49.684Z,99.9
2023-04-26T01:32:53.391Z,99.9
2023-04-26T01:37:00.630Z,99.9
2023-04-26T01:39:04.316Z,99.9
2023-04-26T01:41:07.973Z,99.9
2023-04-26T01:43:14.411Z,99.9
2023-04-26T01:53:32.817Z,99.9
2023-04-26T01:57:43.028Z,99.9
2023-04-26T02:01:50.561Z,99.9
2023-04-26T02:03:54.265Z,99.9
2023-04-26T02:05:57.918Z,99.9
2023-04-26T02:08:01.580Z,99.9
2023-04-26T02:10:05.316Z,99.9
2023-04-26T02:14:15.575Z,99.9
2023-04-26T02:16:19.317Z,99.9
2023-04-26T02:17:22.617Z,99.9
2023-04-26T02:19:26.419Z,99.9
2023-04-26T02:21:30.064Z,99.9
2023-04-26T02:23:33.723Z,99.9
2023-04-26T02:25:40.287Z,99.9
2023-04-26T02:27:44.013Z,99.9
2023-04-26T02:29:47.766Z,99.9
2023-04-26T02:31:51.595Z,99.9
2023-04-26T02:33:55.247Z,99.9
2023-04-26T02:35:59.016Z,99.9
2023-04-26T02:38:02.653Z,99.9
2023-04-26T02:42:12.856Z,99.9
2023-04-26T02:44:16.577Z,99.9
2023-04-26T02:46:20.399Z,99.9
2023-04-26T02:48:23.973Z,99.9
2023-04-26T02:50:27.632Z,99.9
2023-04-26T02:52:31.370Z,99.9
2023-04-26T02:54:37.909Z,99.9
2023-04-26T02:56:41.543Z,99.9
2023-04-26T02:58:45.176Z,99.9
2023-04-26T03:00:48.954Z,99.9
2023-04-26T03:02:52.771Z,99.9
2023-04-26T03:04:56.315Z,99.9
2023-04-26T03:06:59.965Z,99.9
2023-04-26T03:09:06.414Z,99.9
2023-04-26T03:11:10.062Z,99.9
2023-04-26T03:13:13.824Z,99.9
2023-04-26T03:14:17.094Z,99.9
2023-04-26T03:16:20.818Z,99.9
2023-04-26T03:22:34.773Z,99.9
2023-04-26T03:24:38.556Z,99.9
2023-04-26T03:26:42.174Z,99.9
2023-04-26T03:28:45.804Z,99.9
2023-04-26T03:30:49.442Z,99.9
2023-04-26T03:53:37.324Z,99.9
2023-04-26T03:55:40.981Z,99.9
2023-04-26T03:57:44.709Z,99.9
2023-04-26T03:59:48.341Z,99.9
2023-04-26T04:03:56.025Z,99.9
2023-04-26T04:06:02.173Z,99.9
2023-04-26T04:08:05.900Z,99.9
2023-04-26T04:10:09.618Z,99.9
2023-04-26T04:11:12.858Z,99.9
2023-04-26T04:15:20.113Z,99.9
2023-04-26T04:19:30.407Z,99.9
2023-04-26T04:23:37.735Z,99.9
2023-04-26T04:27:44.991Z,99.9
2023-04-26T04:36:02.730Z,99.9
2023-04-26T04:38:06.445Z,99.9
2023-04-26T04:40:11.480Z,99.9
2023-04-26T04:42:13.809Z,99.9
2023-04-26T04:44:17.545Z,99.9
2023-04-26T04:46:21.292Z,99.9
2023-04-26T04:48:27.809Z,99.9
2023-04-26T04:54:38.816Z,99.9
2023-04-26T04:56:42.559Z,99.9
2023-04-26T04:58:46.203Z,99.9
2023-04-26T05:00:49.902Z,99.9
2023-04-26T05:02:56.693Z,99.9
2023-04-26T05:05:00.282Z,99.9
2023-04-26T05:07:03.891Z,99.9
2023-04-26T05:11:37.106Z,99.9
2023-04-26T05:13:40.775Z,99.9
2023-04-26T05:30:16.268Z,99.9
2023-04-26T05:34:23.716Z,99.9
2023-04-26T05:38:31.138Z,99.9
2023-04-26T05:40:34.872Z,99.9
2023-04-26T05:50:56.546Z,99.9
2023-04-26T06:04:25.473Z,99.9
2023-04-26T06:08:32.710Z,99.9
2023-04-26T06:10:36.430Z,99.9
2023-04-26T06:12:42.944Z,99.9
2023-04-26T06:16:50.489Z,99.9
2023-04-26T06:18:54.170Z,99.9
2023-04-26T06:20:57.896Z,99.9
2023-04-26T06:23:01.651Z,99.9
2023-04-26T06:25:05.409Z,99.9
2023-04-26T06:27:11.958Z,99.9
2023-04-26T06:31:19.481Z,99.9
2023-04-26T06:33:23.284Z,99.9
2023-04-26T06:45:48.651Z,99.9
2023-04-26T06:47:52.507Z,99.9
2023-04-26T06:49:56.203Z,99.9
2023-04-26T06:51:59.996Z,99.9
2023-04-26T06:54:03.758Z,99.9
2023-04-26T06:56:10.371Z,99.9
2023-04-26T07:00:18.055Z,99.9
2023-04-26T07:01:21.362Z,99.9
2023-04-26T07:03:25.209Z,99.9
2023-04-26T07:05:28.915Z,99.9
2023-04-26T07:11:43.162Z,99.9
2023-04-26T07:13:47.171Z,99.9
2023-04-26T07:15:50.823Z,99.9
2023-04-26T07:17:54.686Z,99.9
2023-04-26T07:19:58.451Z,99.9
2023-04-26T07:22:02.275Z,99.9
2023-04-26T07:24:08.911Z,99.9
2023-04-26T07:26:12.733Z,99.9
2023-04-26T07:28:16.587Z,99.9
2023-04-26T07:38:38.608Z,99.9
2023-04-26T07:51:01.711Z,99.9
2023-04-26T07:53:08.389Z,99.9
2023-04-26T07:55:12.225Z,99.9
2023-04-26T07:57:16.085Z,99.9
2023-04-26T07:58:19.379Z,99.9
2023-04-26T08:19:00.849Z,99.9
2023-04-26T08:29:23.108Z,99.9
2023-04-26T08:31:27.018Z,99.9
2023-04-26T08:33:30.948Z,99.9
2023-04-26T08:35:37.619Z,99.9
2023-04-26T08:41:49.359Z,99.9
2023-04-26T08:43:53.601Z,99.9
2023-04-26T08:45:57.253Z,99.9
2023-04-26T08:48:03.236Z,99.9
2023-04-26T08:50:07.852Z,99.9
2023-04-26T08:52:11.770Z,99.9
2023-04-26T08:54:15.699Z,99.9
2023-04-26T09:00:53.204Z,99.9
2023-04-26T09:19:34.117Z,99.9
2023-04-26T09:21:38.027Z,99.9
2023-04-26T09:23:41.905Z,99.9
2023-04-26T09:25:45.819Z,99.9
2023-04-26T09:29:53.629Z,99.9
2023-04-26T09:32:00.399Z,99.9
2023-04-26T09:34:04.221Z,99.9
2023-04-26T09:36:08.108Z,99.9
2023-04-26T09:38:13.216Z,99.9
2023-04-26T09:40:17.386Z,99.9
2023-04-26T09:42:21.232Z,99.9
2023-04-26T09:44:25.138Z,99.9
2023-04-26T09:46:31.885Z,99.9
2023-04-26T09:48:35.734Z,99.9
2023-04-26T09:50:39.637Z,99.9
2023-04-26T09:51:42.967Z,99.9
2023-04-26T09:55:50.756Z,99.9
2023-04-26T09:57:54.678Z,99.9
2023-04-26T10:06:13.084Z,99.9
2023-04-26T10:08:17.004Z,99.9
2023-04-26T10:12:24.776Z,99.9
2023-04-26T10:14:31.512Z,99.9
2023-04-26T10:16:35.439Z,99.9
2023-04-26T10:18:39.444Z,99.9
2023-04-26T10:20:43.209Z,99.9
2023-04-26T10:22:47.122Z,99.9
2023-04-26T10:33:09.509Z,99.9
2023-04-26T10:35:13.362Z,99.9
2023-04-26T10:37:17.251Z,99.9
2023-04-26T10:43:31.796Z,99.9
2023-04-26T10:45:35.728Z,99.9
2023-04-26T10:47:39.627Z,99.9
2023-04-26T10:57:01.329Z,99.9
2023-04-26T10:59:13.699Z,99.9
2023-04-26T11:03:13.138Z,99.9
2023-04-26T11:05:16.902Z,99.9
2023-04-26T11:09:24.671Z,99.9
2023-04-26T11:13:35.265Z,99.9
2023-04-26T11:19:46.905Z,99.9
2023-04-26T11:21:50.796Z,99.9
2023-04-26T11:23:54.708Z,99.9
2023-04-26T11:26:01.369Z,99.9
2023-04-26T11:28:05.253Z,99.9
2023-04-26T11:30:09.106Z,99.9
2023-04-26T11:32:12.994Z,99.9
2023-04-26T11:34:16.878Z,99.9
2023-04-26T11:36:20.760Z,99.9
2023-04-26T11:44:39.070Z,99.9
2023-04-26T11:45:42.420Z,99.9
2023-04-26T11:49:50.158Z,99.9
2023-04-26T11:51:54.037Z,99.9
2023-04-26T11:54:00.704Z,99.9
2023-04-26T11:56:04.588Z,99.9
2023-04-26T11:58:08.449Z,99.9
2023-04-26T12:00:12.419Z,99.9
2023-04-26T12:02:16.295Z,99.9
2023-04-26T12:04:20.248Z,99.9
2023-04-26T12:08:30.612Z,99.9
2023-04-26T12:18:49.976Z,99.9
2023-04-26T12:20:53.828Z,99.9
2023-04-26T12:23:00.538Z,99.9
2023-04-26T12:27:08.262Z,99.9
2023-04-26T12:29:12.147Z,99.9
2023-04-26T12:31:16.045Z,99.9
2023-04-26T12:39:34.353Z,99.9
2023-04-26T13:06:56.450Z,99.6
2023-04-26T13:09:00.372Z,99.8
2023-04-26T13:11:04.276Z,99.7
2023-04-26T13:15:12.105Z,99.7
2023-04-26T13:17:16.032Z,99.8
2023-04-26T13:19:22.752Z,99.8
2023-04-26T13:23:30.597Z,99.9
2023-04-26T13:25:34.522Z,99.9
2023-04-26T13:27:38.442Z,99.9
2023-04-26T13:29:42.393Z,99.9
2023-04-26T13:31:46.306Z,99.9
2023-04-26T13:33:53.012Z,99.9
2023-04-26T13:35:56.964Z,99.9
2023-04-26T13:38:00.867Z,99.9
2023-04-26T13:39:04.203Z,99.9
2023-04-26T13:41:08.149Z,99.9
2023-04-26T13:43:12.025Z,99.9
2023-04-26T13:47:22.813Z,99.9
2023-04-26T13:49:26.634Z,99.9
2023-04-26T13:51:30.522Z,90
2023-04-26T13:53:34.459Z,80.1
2023-04-26T13:55:38.361Z,65
2023-04-26T13:57:42.310Z,77
2023-04-26T13:59:46.196Z,60.1
2023-04-26T14:01:55.731Z,43.4
2023-04-26T14:03:57.062Z,55.4
2023-04-26T14:06:00.806Z,48.6
2023-04-26T14:14:16.516Z,97.8
2023-04-26T14:16:23.320Z,98.7
2023-04-26T14:18:27.199Z,99.2
2023-04-26T14:28:46.790Z,99.9
2023-04-26T14:32:57.508Z,99.9
2023-04-26T14:35:01.350Z,99.9
2023-04-26T14:36:04.744Z,99.9
2023-04-26T15:00:57.191Z,99.9
2023-04-26T15:03:01.187Z,99.9
2023-04-26T15:05:05.018Z,99.9
2023-04-26T15:11:16.655Z,99.9
2023-04-26T15:13:23.392Z,99.9
2023-04-26T15:17:31.174Z,99.9
2023-04-26T15:19:35.099Z,99.9
2023-04-26T15:23:42.882Z,99.9
2023-04-26T15:27:53.490Z,99.9
2023-04-26T15:29:57.410Z,99.9
2023-04-26T15:33:04.704Z,99.9
2023-04-26T15:35:08.549Z,99.9
2023-04-26T15:37:13.931Z,99.9
2023-04-26T15:39:17.792Z,99.9
2023-04-26T15:41:24.535Z,99.9
2023-04-26T15:43:28.416Z,99.9
2023-04-26T15:55:54.608Z,99.9
2023-04-26T15:57:58.511Z,99.9
2023-04-26T16:00:02.548Z,99.9
2023-04-26T16:02:06.361Z,99.9
2023-04-26T16:04:10.652Z,99.9
2023-04-26T16:06:14.115Z,99.9
2023-04-26T16:08:27.649Z,99.9
2023-04-26T16:10:24.733Z,99.9
2023-04-26T16:12:28.624Z,99.9
2023-04-26T16:14:32.527Z,99.9
2023-04-26T16:16:38.170Z,99.9
2023-04-26T16:18:40.368Z,99.9
2023-04-26T16:20:44.228Z,99.9
2023-04-26T16:22:48.119Z,99.9
2023-04-26T16:24:54.823Z,99.9
2023-04-26T16:29:02.617Z,99.9
2023-04-26T16:31:32.515Z,99.9
2023-04-26T16:35:40.060Z,99.9
2023-04-26T16:37:46.747Z,99.9
2023-04-26T16:39:50.639Z,99.9
2023-04-26T16:41:54.550Z,99.9
2023-04-26T16:43:58.433Z,99.9
2023-04-26T16:46:02.409Z,99.9
2023-04-26T16:56:24.610Z,99.9
2023-04-26T16:58:28.685Z,99.9
2023-04-26T17:00:32.374Z,99.9
2023-04-26T17:02:36.422Z,99.9
2023-04-26T17:06:46.831Z,99.9
2023-04-26T17:08:51.003Z,99.9
2023-04-26T17:10:54.609Z,99.9
2023-04-26T17:12:58.469Z,99.9
2023-04-26T17:15:04.568Z,99.9
2023-04-26T17:19:10.118Z,99.9
2023-04-26T17:21:16.822Z,99.9
2023-04-26T17:23:21.028Z,99.9
2023-04-26T17:25:24.555Z,99.9
2023-04-26T17:30:35.664Z,99.9
2023-04-26T17:40:57.859Z,99.9
2023-04-26T17:43:01.715Z,99.9
2023-04-26T17:45:05.636Z,99.9
2023-04-26T17:47:09.458Z,99.9
2023-04-26T17:49:16.125Z,99.9
2023-04-26T17:51:20.063Z,99.9
2023-04-26T17:53:23.882Z,99.9
2023-04-26T17:55:27.762Z,99.9
2023-04-26T17:57:31.610Z,99.9
2023-04-26T17:59:35.472Z,99.9
2023-04-26T18:01:39.394Z,99.9
2023-04-26T18:03:46.188Z,99.9
2023-04-26T18:05:49.889Z,99.9
2023-04-26T18:09:57.602Z,99.9
2023-04-26T18:14:05.296Z,99.9
2023-04-26T18:20:19.700Z,99.9
2023-04-26T18:23:26.899Z,99.9
2023-04-26T18:25:30.738Z,99.9
2023-04-26T18:27:34.585Z,99.9
2023-04-26T18:29:38.439Z,99.9
2023-04-26T18:31:45.212Z,99.9
2023-04-26T18:33:48.967Z,99.9
2023-04-26T18:35:52.806Z,99.9
2023-04-26T18:37:56.626Z,99.9
2023-04-26T18:40:00.500Z,99.9
2023-04-26T18:42:04.330Z,99.9
2023-04-26T18:44:08.173Z,99.9
2023-04-26T18:46:14.888Z,99.9
2023-04-26T18:48:18.658Z,99.9
2023-04-26T18:50:22.521Z,99.9
2023-04-26T18:52:26.365Z,99.9
2023-04-26T18:54:30.200Z,99.9
2023-04-26T18:58:37.871Z,99.9
2023-04-26T19:00:44.515Z,99.9
2023-04-26T19:04:52.239Z,99.9
2023-04-26T19:20:25.171Z,99.9
2023-04-26T19:22:28.997Z,99.9
2023-04-26T19:24:32.817Z,99.9
2023-04-26T19:26:36.689Z,99.9
2023-04-26T19:28:43.311Z,99.9
2023-04-26T19:30:47.168Z,99.9
2023-04-26T19:32:51.067Z,99.9
2023-04-26T19:34:54.801Z,99.9
2023-04-26T19:36:58.657Z,99.9
2023-04-26T19:43:13.003Z,99.9
2023-04-26T19:47:20.619Z,99.9
2023-04-26T19:49:24.749Z,99.9
2023-04-26T19:51:28.248Z,99.9
2023-04-26T20:18:49.319Z,99.9
2023-04-26T20:20:53.147Z,99.9
2023-04-26T20:25:03.564Z,99.9
2023-04-26T20:27:07.386Z,99.9
2023-04-26T20:31:15.010Z,99.9
2023-04-26T20:33:18.855Z,99.9
2023-04-26T20:35:22.657Z,99.9
2023-04-26T20:43:40.737Z,99.9
2023-04-26T20:45:44.526Z,99.9
2023-04-26T20:49:52.104Z,99.9
2023-04-26T20:51:55.897Z,99.9
2023-04-26T20:54:02.523Z,99.9
2023-04-26T20:56:06.333Z,99.9
2023-04-26T20:58:10.138Z,99.9
2023-04-26T21:00:13.945Z,99.9
2023-04-26T21:02:17.759Z,99.9
2023-04-26T21:04:21.900Z,99.9
2023-04-26T21:06:25.282Z,99.9
2023-04-26T21:08:31.930Z,99.9
2023-04-26T21:10:35.692Z,99.9
2023-04-26T21:12:39.482Z,99.9
2023-04-26T21:13:42.793Z,99.9
2023-04-26T21:15:46.569Z,99.9
2023-04-26T21:17:50.422Z,99.9
2023-04-26T21:19:54.134Z,99.9
2023-04-26T21:22:00.766Z,99.9
2023-04-26T21:24:04.581Z,99.9
2023-04-26T21:26:08.438Z,99.9
2023-04-26T21:28:12.235Z,99.9
2023-04-26T21:30:15.987Z,99.9
2023-04-26T21:32:19.774Z,99.9
2023-04-26T21:34:25.043Z,99.9
2023-04-26T21:38:35.371Z,99.9
2023-04-26T21:40:39.109Z,99.9
2023-04-26T21:42:48.858Z,99.9
2023-04-26T21:44:46.679Z,99.9
2023-04-26T21:46:50.474Z,99.9
2023-04-26T22:01:19.671Z,99.9
2023-04-26T22:03:23.425Z,99.9
2023-04-26T22:05:29.870Z,99.9
2023-04-26T22:09:37.358Z,99.9
2023-04-26T22:10:40.620Z,99.9
2023-04-26T22:18:58.643Z,99.9
2023-04-26T22:21:02.296Z,99.9
2023-04-26T22:25:09.860Z,99.9
2023-04-26T22:31:21.074Z,99.9
2023-04-26T22:33:27.630Z,99.9
2023-04-26T22:39:38.843Z,99.9
2023-04-26T22:41:42.617Z,99.9
2023-04-26T22:43:46.373Z,99.9
2023-04-26T22:45:50.141Z,99.9
2023-04-26T22:47:56.752Z,99.9
2023-04-26T22:50:00.410Z,99.9
2023-04-26T22:52:09.845Z,99.9
2023-04-26T22:54:07.891Z,99.9
2023-04-26T22:56:11.618Z,99.9
2023-04-26T22:58:15.378Z,99.9
2023-04-26T23:00:19.139Z,99.9
2023-04-26T23:02:25.856Z,99.9
2023-04-26T23:04:29.511Z,99.9
2023-04-26T23:06:33.258Z,99.9
2023-04-26T23:07:36.538Z,99.9
2023-04-26T23:09:40.334Z,99.9
2023-04-26T23:11:44.017Z,99.9
2023-04-26T23:13:47.721Z,99.9
2023-04-26T23:15:54.283Z,99.9
2023-04-26T23:17:58.073Z,99.9
2023-04-26T23:20:01.786Z,99.9
2023-04-26T23:22:05.443Z,99.9
2023-04-26T23:24:09.190Z,99.9
2023-04-26T23:26:12.889Z,99.9
2023-04-26T23:28:16.580Z,99.9
2023-04-26T23:32:27.065Z,99.9
2023-04-26T23:34:30.723Z,99.9
2023-04-26T23:36:34.538Z,99.9
2023-04-26T23:38:38.330Z,99.9
2023-04-26T23:46:56.266Z,99.9
2023-04-26T23:53:07.316Z,99.9
2023-04-26T23:57:14.704Z,99.9
